Time;durP1;ratioP1;P1;durP2;ratioP2;P2;SDS_P1;SDS_P2;PMS_P1;PMS_P2;Temp;Humidity;BMP_temperature;BMP_pressure;BME280_temperature;BME280_humidity;BME280_pressure;Samples;Min_cycle;Max_cycle;Signal;HPM_P1;HPM_P2
2023/09/29 00:00:35;;;;;;;7.05;5.47;;;;;;;26.06;39.67;100271.13;4482010;32;33904;-69
2023/09/29 00:03:06;;;;;;;9.93;5.50;;;;;;;26.06;39.82;100279.34;4482371;32;34032;-69
2023/09/29 00:05:35;;;;;;;7.65;5.37;;;;;;;26.06;39.64;100270.28;4483763;32;33242;-69
2023/09/29 00:08:02;;;;;;;8.50;5.82;;;;;;;26.06;39.55;100265.66;4488777;31;33591;-69
2023/09/29 00:10:30;;;;;;;9.10;6.00;;;;;;;26.06;39.53;100270.28;4499348;31;34493;-68
2023/09/29 00:12:58;;;;;;;9.25;5.55;;;;;;;26.02;39.71;100264.47;4485200;31;34055;-69
2023/09/29 00:15:26;;;;;;;8.65;5.68;;;;;;;26.04;39.57;100266.97;4499554;31;34062;-69
2023/09/29 00:17:54;;;;;;;7.45;5.62;;;;;;;26.02;39.72;100271.81;4499302;31;34665;-69
2023/09/29 00:20:24;;;;;;;7.05;4.95;;;;;;;26.06;39.42;100268.38;4499417;31;34968;-69
2023/09/29 00:22:57;;;;;;;9.63;5.97;;;;;;;26.08;39.33;100268.19;4485197;31;33668;-70
2023/09/29 00:25:26;;;;;;;11.95;5.20;;;;;;;26.07;39.30;100266.53;4485224;31;32663;-69
2023/09/29 00:27:55;;;;;;;7.62;5.75;;;;;;;26.06;39.31;100268.38;4485114;31;34673;-69
2023/09/29 00:30:22;;;;;;;6.50;5.13;;;;;;;26.07;39.32;100266.53;4459547;31;33834;-68
2023/09/29 00:32:52;;;;;;;8.98;5.57;;;;;;;26.05;39.26;100272.19;4471896;31;33376;-69
2023/09/29 00:37:54;;;;;;;7.15;5.15;;;;;;;26.15;39.24;100261.53;4485465;31;33640;-68
2023/09/29 00:40:22;;;;;;;8.15;4.87;;;;;;;26.12;39.36;100259.28;4485004;31;33708;-68
2023/09/29 00:42:52;;;;;;;10.00;5.28;;;;;;;26.09;39.32;100258.91;4499121;31;34094;-68
2023/09/29 00:45:25;;;;;;;9.85;5.10;;;;;;;26.09;39.07;100259.72;4472151;31;33398;-70
2023/09/29 00:47:57;;;;;;;8.48;5.12;;;;;;;26.08;39.09;100257.25;4472782;31;33908;-69
2023/09/29 00:50:26;;;;;;;8.52;5.12;;;;;;;26.03;39.38;100248.91;4500526;31;33985;-70
2023/09/29 00:52:58;;;;;;;10.32;5.60;;;;;;;26.03;39.31;100251.63;4501023;31;34816;-69
2023/09/29 00:55:28;;;;;;;6.97;5.47;;;;;;;26.02;39.34;100249.94;4483692;32;34458;-66
2023/09/29 00:57:59;;;;;;;9.25;5.78;;;;;;;26.04;39.09;100256.88;4483677;32;33890;-68
2023/09/29 01:02:57;;;;;;;7.97;5.47;;;;;;;25.99;39.26;100251.25;4484932;32;34085;-70
2023/09/29 01:05:25;;;;;;;8.77;5.72;;;;;;;26.00;39.16;100254.81;4484275;32;33402;-70
2023/09/29 01:07:53;;;;;;;8.68;5.72;;;;;;;26.05;39.18;100253.06;4473782;31;33859;-69
2023/09/29 01:10:24;;;;;;;9.18;5.75;;;;;;;26.03;39.16;100254.37;4500659;31;34823;-69
2023/09/29 01:12:53;;;;;;;6.68;5.40;;;;;;;26.01;39.10;100251.84;4486939;31;34255;-70
2023/09/29 01:15:21;;;;;;;7.53;5.40;;;;;;;25.98;39.10;100244.13;4486650;31;33472;-67
2023/09/29 01:17:49;;;;;;;9.38;5.62;;;;;;;25.98;39.28;100252.34;4500677;31;34486;-67
2023/09/29 01:20:27;;;;;;;6.62;4.82;;;;;;;25.97;39.35;100250.66;4500961;31;33888;-69
2023/09/29 01:22:56;;;;;;;9.05;5.57;;;;;;;25.97;39.13;100247.91;4476019;31;34885;-68
2023/09/29 01:25:24;;;;;;;7.82;5.07;;;;;;;25.97;39.18;100253.38;4500791;31;34452;-69
2023/09/29 01:27:53;;;;;;;8.70;5.15;;;;;;;25.97;39.18;100245.19;4500772;31;33507;-69
2023/09/29 01:30:21;;;;;;;8.40;5.60;;;;;;;25.95;39.31;100253.63;4473862;31;34638;-68
2023/09/29 01:32:52;;;;;;;7.57;5.15;;;;;;;25.95;39.53;100247.31;4500643;31;34537;-69
2023/09/29 01:35:23;;;;;;;7.10;5.35;;;;;;;25.94;39.49;100251.13;4474016;31;34378;-71
2023/09/29 01:37:55;;;;;;;8.85;5.32;;;;;;;25.94;39.22;100243.75;4486073;31;33200;-70
2023/09/29 01:40:23;;;;;;;7.95;5.30;;;;;;;25.95;39.29;100247.31;4500800;31;33688;-70
2023/09/29 01:42:51;;;;;;;8.00;5.07;;;;;;;25.95;39.21;100244.59;4486337;31;33614;-70
2023/09/29 01:45:19;;;;;;;7.87;5.32;;;;;;;25.95;39.12;100244.59;4486254;31;33345;-70
2023/09/29 01:47:47;;;;;;;6.47;5.00;;;;;;;25.93;39.06;100239.38;4473288;31;33119;-70
2023/09/29 01:50:17;;;;;;;6.87;5.20;;;;;;;25.92;39.36;100250.50;4500740;31;33967;-71
2023/09/29 01:52:46;;;;;;;6.20;4.55;;;;;;;25.90;39.31;100245.28;4473200;31;33921;-70
2023/09/29 01:55:14;;;;;;;8.48;5.45;;;;;;;25.94;39.03;100242.94;4500496;31;33346;-70
2023/09/29 01:57:42;;;;;;;8.40;5.80;;;;;;;25.92;39.20;100245.88;4500286;31;33979;-68
2023/09/29 02:00:14;;;;;;;6.70;4.65;;;;;;;25.93;39.18;100247.56;4473054;31;34755;-69
2023/09/29 02:02:46;;;;;;;7.95;5.05;;;;;;;25.90;39.14;100248.03;4474204;31;34640;-69
2023/09/29 02:05:16;;;;;;;8.07;4.87;;;;;;;25.90;39.25;100255.41;4500315;31;33497;-70
2023/09/29 02:07:44;;;;;;;9.13;5.68;;;;;;;25.89;39.21;100253.72;4497360;31;34401;-69
2023/09/29 02:10:12;;;;;;;9.32;5.10;;;;;;;25.91;39.21;100248.84;4483342;32;33332;-70
2023/09/29 02:12:46;;;;;;;9.23;5.03;;;;;;;25.91;39.09;100243.38;4483288;32;34476;-69
2023/09/29 02:15:15;;;;;;;8.02;5.57;;;;;;;25.91;39.15;100237.91;4471334;32;33574;-69
2023/09/29 02:17:44;;;;;;;7.95;5.12;;;;;;;25.89;39.04;100243.63;4483219;32;33956;-68
2023/09/29 02:20:15;;;;;;;8.38;5.22;;;;;;;25.90;39.04;100239.00;4484851;32;33555;-70
2023/09/29 02:22:43;;;;;;;7.90;5.57;;;;;;;25.91;38.91;100241.47;4483366;32;34092;-70
2023/09/29 02:25:11;;;;;;;8.52;5.65;;;;;;;25.90;38.99;100244.47;4483219;32;33275;-70
2023/09/29 02:27:40;;;;;;;8.50;5.22;;;;;;;25.88;39.16;100243.84;4484509;32;33814;-70
2023/09/29 02:30:11;;;;;;;8.93;5.32;;;;;;;25.88;39.15;100249.31;4484598;32;33531;-70
2023/09/29 02:32:41;;;;;;;8.05;5.25;;;;;;;25.84;39.33;100248.97;4470125;32;34336;-68
2023/09/29 02:35:10;;;;;;;8.23;5.15;;;;;;;25.86;39.19;100241.34;4483336;32;33558;-69
2023/09/29 02:37:38;;;;;;;7.12;5.12;;;;;;;25.86;38.92;100241.34;4483270;32;33825;-69
2023/09/29 02:40:12;;;;;;;7.93;5.28;;;;;;;25.85;39.04;100245.16;4483158;32;33723;-69
2023/09/29 02:42:39;;;;;;;7.82;5.30;;;;;;;25.92;39.00;100240.41;4470584;32;33936;-70
2023/09/29 02:45:08;;;;;;;7.32;5.10;;;;;;;25.96;38.86;100240.78;4470070;32;34384;-71
2023/09/29 02:47:36;;;;;;;7.30;5.20;;;;;;;25.92;38.81;100237.66;4484396;32;34755;-70
2023/09/29 02:50:04;;;;;;;12.10;5.43;;;;;;;25.91;38.75;100236.00;4483078;32;34027;-70
2023/09/29 02:52:32;;;;;;;8.45;5.35;;;;;;;25.90;38.77;100244.47;4482957;32;34872;-70
2023/09/29 02:54:59;;;;;;;8.77;4.75;;;;;;;25.88;39.03;100238.38;4484258;32;34366;-70
2023/09/29 02:57:28;;;;;;;11.73;5.07;;;;;;;25.86;39.15;100235.06;4484380;32;33944;-69
2023/09/29 03:00:00;;;;;;;8.40;5.55;;;;;;;25.84;39.16;100237.19;4484104;32;33818;-68
2023/09/29 03:02:28;;;;;;;7.70;4.93;;;;;;;25.94;38.80;100237.47;4484339;32;34074;-69
2023/09/29 03:04:56;;;;;;;6.65;4.80;;;;;;;25.88;39.06;100233.75;4484263;32;34390;-66
2023/09/29 03:07:24;;;;;;;9.98;5.57;;;;;;;25.85;39.19;100234.22;4482769;32;33839;-68
2023/09/29 03:09:51;;;;;;;7.70;4.80;;;;;;;25.85;39.25;100238.84;4484180;32;33950;-68
2023/09/29 03:12:19;;;;;;;8.15;5.20;;;;;;;25.85;38.85;100233.37;4483405;32;34217;-69
2023/09/29 03:14:47;;;;;;;8.20;5.55;;;;;;;25.84;39.08;100234.47;4482826;32;34002;-68
2023/09/29 03:17:14;;;;;;;6.20;4.80;;;;;;;25.84;38.84;100237.19;4482948;32;34809;-68
2023/09/29 03:19:43;;;;;;;6.62;5.30;;;;;;;25.84;38.87;100237.19;4484098;32;34845;-68
2023/09/29 03:22:13;;;;;;;7.37;5.12;;;;;;;25.84;38.92;100231.72;4484446;32;32675;-68
2023/09/29 03:24:40;;;;;;;8.57;5.05;;;;;;;25.90;38.52;100228.06;4482797;32;33030;-68
2023/09/29 03:27:08;;;;;;;9.82;5.00;;;;;;;25.89;38.57;100240.06;4484023;32;33807;-67
2023/09/29 03:29:36;;;;;;;8.32;5.50;;;;;;;25.89;38.43;100240.06;4484203;32;33613;-66
2023/09/29 03:32:04;;;;;;;8.45;5.43;;;;;;;25.83;38.94;100241.81;4482916;32;34111;-67
2023/09/29 03:34:31;;;;;;;8.10;5.75;;;;;;;25.82;38.75;100242.88;4484008;32;33752;-68
2023/09/29 03:37:00;;;;;;;6.45;4.75;;;;;;;25.83;38.69;100240.97;4484142;32;33413;-67
2023/09/29 03:39:27;;;;;;;7.95;5.35;;;;;;;25.81;38.91;100249.41;4484392;32;33674;-69
2023/09/29 03:41:55;;;;;;;8.73;5.57;;;;;;;25.80;38.72;100241.44;4483833;32;34808;-69
2023/09/29 03:44:25;;;;;;;9.30;5.37;;;;;;;25.79;38.83;100248.81;4470099;32;34396;-71
2023/09/29 03:46:54;;;;;;;9.80;5.25;;;;;;;25.81;38.78;100251.31;4482769;32;33816;-67
2023/09/29 03:49:23;;;;;;;10.27;4.95;;;;;;;25.81;38.58;100232.19;4482527;32;33880;-67
2023/09/29 03:51:51;;;;;;;10.47;5.27;;;;;;;25.79;38.81;100239.78;4483903;32;33771;-67
2023/09/29 03:54:19;;;;;;;8.05;5.37;;;;;;;25.78;38.69;100249.03;4484080;32;33571;-68
2023/09/29 03:56:46;;;;;;;8.93;5.28;;;;;;;25.79;38.76;100248.00;4483703;32;34795;-66
2023/09/29 03:59:14;;;;;;;9.25;5.03;;;;;;;25.82;38.50;100251.06;4483911;32;34060;-69
2023/09/29 04:01:42;;;;;;;8.35;5.25;;;;;;;25.77;38.92;100250.09;4482673;32;34205;-66
2023/09/29 04:04:10;;;;;;;7.47;5.45;;;;;;;25.77;38.78;100247.37;4482293;32;33580;-68
2023/09/29 04:06:38;;;;;;;9.02;5.60;;;;;;;25.79;38.37;100248.81;4482821;32;33601;-69
2023/09/29 04:09:06;;;;;;;8.05;5.10;;;;;;;25.76;38.88;100256.66;4483751;32;33228;-67
2023/09/29 04:11:34;;;;;;;7.28;5.07;;;;;;;25.74;38.85;100251.38;4482458;32;34159;-68
2023/09/29 04:14:02;;;;;;;7.57;4.80;;;;;;;25.75;38.75;100254.94;4483588;32;34413;-67
2023/09/29 04:16:30;;;;;;;7.53;4.30;;;;;;;25.77;38.49;100255.56;4482436;32;33849;-68
2023/09/29 04:18:57;;;;;;;7.25;5.20;;;;;;;25.76;38.53;100252.00;4483525;32;33473;-67
2023/09/29 04:21:25;;;;;;;9.90;4.97;;;;;;;25.75;38.58;100252.22;4483676;32;34783;-69
2023/09/29 04:23:53;;;;;;;7.45;5.18;;;;;;;25.73;38.64;100260.63;4483256;32;32782;-67
2023/09/29 04:26:22;;;;;;;11.07;5.70;;;;;;;25.75;38.35;100253.03;4482180;32;33588;-69
2023/09/29 04:28:50;;;;;;;7.87;5.30;;;;;;;25.73;38.83;100260.63;4483546;32;33966;-68
2023/09/29 04:31:18;;;;;;;8.70;5.07;;;;;;;25.79;38.32;100256.19;4483417;32;34069;-70
2023/09/29 04:33:46;;;;;;;7.87;5.15;;;;;;;25.75;38.53;100255.78;4483486;32;33087;-69
2023/09/29 04:36:14;;;;;;;10.13;5.05;;;;;;;25.72;38.75;100253.50;4483473;32;33688;-69
2023/09/29 04:38:41;;;;;;;8.82;5.70;;;;;;;25.74;38.51;100256.84;4483432;32;34005;-69
2023/09/29 04:41:09;;;;;;;11.35;5.22;;;;;;;25.72;38.60;100258.97;4483624;32;33548;-70
2023/09/29 04:43:37;;;;;;;9.65;5.62;;;;;;;25.72;38.35;100269.06;4482180;32;33668;-69
2023/09/29 04:46:05;;;;;;;6.43;4.72;;;;;;;25.75;38.36;100263.16;4483206;32;33882;-67
2023/09/29 04:48:33;;;;;;;7.03;4.65;;;;;;;25.74;38.71;100272.38;4481879;32;33132;-69
2023/09/29 04:51:00;;;;;;;9.30;5.65;;;;;;;25.74;38.46;100273.25;4483427;32;34851;-69
2023/09/29 04:53:28;;;;;;;7.82;4.93;;;;;;;25.75;38.41;100271.34;4483102;32;34210;-68
2023/09/29 04:55:59;;;;;;;9.80;5.65;;;;;;;25.75;38.21;100277.66;4483224;32;34670;-70
2023/09/29 04:58:26;;;;;;;10.35;5.37;;;;;;;25.72;38.56;100275.38;4481814;32;35406;-71
2023/09/29 05:00:54;;;;;;;8.68;4.95;;;;;;;25.79;38.06;100275.31;4468672;32;34785;-66
2023/09/29 05:03:22;;;;;;;7.78;5.18;;;;;;;25.73;38.50;100281.66;4482979;32;34359;-65
2023/09/29 05:05:50;;;;;;;7.72;4.93;;;;;;;25.69;38.69;100287.59;4482913;32;33504;-64
2023/09/29 05:08:17;;;;;;;10.00;5.65;;;;;;;25.67;38.68;100283.41;4483010;32;34646;-63
2023/09/29 05:10:45;;;;;;;6.65;4.78;;;;;;;25.65;38.62;100280.09;4482840;32;34880;-64
2023/09/29 05:13:12;;;;;;;7.50;5.25;;;;;;;25.64;38.57;100284.69;4484185;31;33531;-64
2023/09/29 05:15:40;;;;;;;9.80;5.25;;;;;;;25.61;38.53;100279.72;4496885;31;34604;-64
2023/09/29 05:18:08;;;;;;;7.37;5.25;;;;;;;25.61;38.39;100285.19;4498620;31;33997;-64
2023/09/29 05:20:36;;;;;;;9.52;5.95;;;;;;;25.60;38.44;100271.72;4497170;31;34816;-65
2023/09/29 05:23:03;;;;;;;10.18;5.47;;;;;;;25.59;38.42;100281.00;4498395;31;33674;-65
2023/09/29 05:25:31;;;;;;;11.52;5.70;;;;;;;25.58;38.38;100280.16;4487911;31;33836;-65
2023/09/29 05:27:59;;;;;;;9.48;5.45;;;;;;;25.58;38.18;100285.63;4482450;32;34361;-65
2023/09/29 05:30:26;;;;;;;8.27;5.70;;;;;;;25.56;38.33;100287.78;4489474;31;34909;-65
2023/09/29 05:32:54;;;;;;;8.10;5.32;;;;;;;25.55;38.20;100283.34;4498354;31;33274;-66
2023/09/29 05:35:22;;;;;;;28.75;6.45;;;;;;;25.54;38.32;100283.59;4499215;31;34084;-65
2023/09/29 05:37:50;;;;;;;12.77;5.45;;;;;;;25.54;38.35;100289.88;4478090;32;33910;-65
2023/09/29 05:40:18;;;;;;;13.88;6.15;;;;;;;25.54;38.48;100289.88;4470965;32;34137;-66
2023/09/29 05:42:46;;;;;;;14.70;6.20;;;;;;;25.53;38.56;100296.41;4483735;31;33526;-64
2023/09/29 05:45:20;;;;;;;19.85;5.60;;;;;;;25.53;38.62;100292.84;4490786;31;33314;-65
2023/09/29 05:47:51;;;;;;;9.15;5.93;;;;;;;25.52;38.61;100292.03;4483524;31;34826;-64
2023/09/29 05:50:19;;;;;;;11.63;6.30;;;;;;;25.53;38.62;100292.84;4484894;31;33816;-65
2023/09/29 05:52:47;;;;;;;11.40;5.85;;;;;;;25.52;38.65;100293.91;4481208;32;33556;-63
2023/09/29 05:55:35;;;;;;;11.02;5.70;;;;;;;25.51;38.72;100286.75;4481836;32;33466;-65
2023/09/29 05:58:02;;;;;;;10.63;5.70;;;;;;;25.50;38.68;100294.13;4482970;32;32630;-65
2023/09/29 06:00:30;;;;;;;9.43;5.80;;;;;;;25.50;38.74;100293.28;4484173;32;34132;-64
2023/09/29 06:02:59;;;;;;;9.40;5.87;;;;;;;25.50;38.74;100296.88;4482860;32;33148;-64
2023/09/29 06:05:27;;;;;;;9.93;5.87;;;;;;;25.49;38.82;100292.47;4483795;32;33785;-64
2023/09/29 06:07:55;;;;;;;9.90;5.78;;;;;;;25.49;38.79;100297.09;4477169;32;34366;-63
2023/09/29 06:10:25;;;;;;;7.85;5.97;;;;;;;25.48;38.87;100301.72;4484502;32;34321;-63
2023/09/29 06:12:53;;;;;;;10.50;5.75;;;;;;;25.48;38.89;100298.16;4484595;32;34588;-64
2023/09/29 06:15:21;;;;;;;10.73;6.15;;;;;;;25.48;38.94;100299.00;4484894;32;33603;-64
2023/09/29 06:17:50;;;;;;;9.00;6.07;;;;;;;25.48;38.95;100301.72;4484419;32;33814;-64
2023/09/29 06:20:18;;;;;;;10.38;5.68;;;;;;;25.49;38.91;100305.28;4484729;32;34899;-65
2023/09/29 06:22:46;;;;;;;10.30;5.57;;;;;;;25.48;38.97;100312.66;4483462;32;32709;-65
2023/09/29 06:25:14;;;;;;;10.25;5.93;;;;;;;25.48;38.95;100307.19;4484297;32;34175;-64
2023/09/29 06:27:42;;;;;;;7.90;5.75;;;;;;;25.47;39.04;100308.28;4484574;32;34349;-64
2023/09/29 06:30:09;;;;;;;9.52;5.50;;;;;;;25.49;39.05;100316.22;4483299;32;35077;-64
2023/09/29 06:32:37;;;;;;;9.35;6.28;;;;;;;25.49;39.08;100310.75;4484313;32;33710;-65
2023/09/29 06:35:05;;;;;;;8.07;5.70;;;;;;;25.48;39.12;100311.84;4484513;32;35555;-65
2023/09/29 06:37:33;;;;;;;12.35;5.90;;;;;;;25.48;39.12;100311.84;4485142;31;33512;-64
2023/09/29 06:40:01;;;;;;;8.15;5.55;;;;;;;25.47;39.15;100313.72;4483811;31;35004;-67
2023/09/29 06:42:29;;;;;;;9.30;6.47;;;;;;;25.48;39.18;100317.28;4481582;32;33732;-64
2023/09/29 06:44:56;;;;;;;10.50;6.25;;;;;;;25.48;39.21;100322.75;4484283;32;34686;-64
2023/09/29 06:47:24;;;;;;;9.18;5.95;;;;;;;25.47;39.22;100316.47;4484054;32;34838;-65
2023/09/29 06:49:52;;;;;;;7.93;5.80;;;;;;;25.47;39.27;100318.37;4484457;32;34816;-64
2023/09/29 06:52:19;;;;;;;9.70;6.62;;;;;;;25.47;39.25;100321.09;4484530;32;33261;-64
2023/09/29 06:54:47;;;;;;;8.40;5.47;;;;;;;25.47;39.22;100327.41;4484549;32;33764;-64
2023/09/29 06:57:15;;;;;;;7.87;5.70;;;;;;;25.48;39.32;100326.31;4484188;32;33651;-64
2023/09/29 06:59:42;;;;;;;11.63;7.15;;;;;;;25.47;39.31;100321.94;4484519;32;34149;-64
2023/09/29 07:02:10;;;;;;;10.52;6.10;;;;;;;25.46;39.34;100331.19;4484232;32;33464;-64
2023/09/29 07:04:38;;;;;;;10.32;5.90;;;;;;;25.47;39.40;100340.22;4484245;32;33903;-64
2023/09/29 07:07:24;;;;;;;9.15;5.70;;;;;;;25.46;39.43;100333.94;4484038;32;33906;-64
2023/09/29 07:09:52;;;;;;;9.75;5.82;;;;;;;25.46;39.48;100336.66;4484209;32;34450;-64
2023/09/29 07:12:19;;;;;;;9.43;6.40;;;;;;;25.44;39.48;100342.31;4484332;32;33763;-64
2023/09/29 07:14:47;;;;;;;9.77;6.12;;;;;;;25.47;39.49;100345.69;4484058;32;33774;-64
2023/09/29 07:17:15;;;;;;;11.65;6.37;;;;;;;25.47;39.52;100342.94;4484363;32;33982;-64
2023/09/29 07:19:43;;;;;;;8.88;6.25;;;;;;;25.48;39.52;100350.06;4484175;32;34960;-64
2023/09/29 07:22:12;;;;;;;10.95;6.30;;;;;;;25.46;39.54;100347.59;4484112;32;33825;-65
2023/09/29 07:24:41;;;;;;;9.00;5.32;;;;;;;25.47;39.53;100357.44;4484233;32;34594;-64
2023/09/29 07:27:11;;;;;;;8.18;5.40;;;;;;;25.46;39.54;100353.06;4482659;32;33948;-64
2023/09/29 07:29:39;;;;;;;8.60;5.72;;;;;;;25.47;39.58;100356.63;4470171;32;34836;-64
2023/09/29 07:32:06;;;;;;;12.88;5.97;;;;;;;25.45;39.55;100341.25;4484091;32;33789;-64
2023/09/29 07:34:34;;;;;;;9.35;5.60;;;;;;;25.48;39.53;100352.81;4484060;32;33923;-64
2023/09/29 07:37:02;;;;;;;8.65;6.30;;;;;;;25.47;39.58;100346.50;4482696;32;33911;-64
2023/09/29 07:39:29;;;;;;;8.65;6.35;;;;;;;25.49;39.45;100351.75;4484072;32;33679;-64
2023/09/29 07:41:57;;;;;;;9.18;5.80;;;;;;;25.49;39.48;100349.84;4483869;32;34440;-64
2023/09/29 07:44:25;;;;;;;9.75;5.55;;;;;;;25.48;39.50;100352.81;4482709;32;33872;-64
2023/09/29 07:46:53;;;;;;;8.13;5.50;;;;;;;25.48;39.46;100359.09;4483952;32;33986;-64
2023/09/29 07:49:23;;;;;;;9.98;6.37;;;;;;;25.48;39.53;100348.19;4480897;32;86206;-64
2023/09/29 07:51:50;;;;;;;8.75;5.78;;;;;;;25.48;39.58;100353.66;4484232;32;33482;-64
2023/09/29 07:54:21;;;;;;;9.45;5.80;;;;;;;25.49;39.49;100349.84;4483931;32;33910;-64
2023/09/29 07:56:50;;;;;;;8.30;5.45;;;;;;;25.48;39.56;100353.66;4482351;32;33075;-65
2023/09/29 07:59:18;;;;;;;9.45;6.18;;;;;;;25.48;39.53;100350.91;4483289;32;34207;-65
2023/09/29 08:01:49;;;;;;;8.65;5.78;;;;;;;25.48;39.54;100359.09;4483877;32;33217;-64
2023/09/29 08:04:17;;;;;;;12.20;6.20;;;;;;;25.48;39.52;100350.06;4483816;32;33833;-63
2023/09/29 08:06:45;;;;;;;8.25;5.60;;;;;;;25.48;39.41;100355.53;4483685;32;34776;-65
2023/09/29 08:09:13;;;;;;;8.02;5.72;;;;;;;25.48;39.47;100344.63;4483750;32;34956;-65
2023/09/29 08:11:42;;;;;;;8.23;6.05;;;;;;;25.47;39.54;100343.78;4483843;32;33988;-65
2023/09/29 08:14:10;;;;;;;10.23;6.00;;;;;;;25.48;39.51;100353.66;4481918;32;33703;-64
2023/09/29 08:16:37;;;;;;;10.02;5.70;;;;;;;25.47;39.55;100357.44;4492694;31;34939;-65
2023/09/29 08:19:05;;;;;;;12.77;6.65;;;;;;;25.48;39.51;100356.38;4467961;32;34341;-63
2023/09/29 08:21:33;;;;;;;8.77;6.00;;;;;;;25.48;39.49;100356.38;4468169;31;34550;-64
2023/09/29 08:24:02;;;;;;;10.57;5.75;;;;;;;25.47;39.49;100349.25;4477724;31;33253;-65
2023/09/29 08:26:31;;;;;;;10.48;5.80;;;;;;;25.50;39.52;100356.13;4469710;31;34429;-64
2023/09/29 08:28:59;;;;;;;9.75;6.18;;;;;;;25.49;39.45;100349.84;4482913;31;33825;-65
2023/09/29 08:31:27;;;;;;;9.90;6.00;;;;;;;25.49;39.46;100349.84;4466614;31;33061;-64
2023/09/29 08:33:55;;;;;;;10.65;5.97;;;;;;;25.49;39.46;100355.31;4482364;32;33852;-66
2023/09/29 08:36:23;;;;;;;10.10;6.20;;;;;;;25.49;39.44;100355.31;4481833;31;34724;-65
2023/09/29 08:38:50;;;;;;;7.90;5.55;;;;;;;25.48;39.42;100347.34;4477733;31;34161;-65
2023/09/29 08:41:18;;;;;;;9.98;6.25;;;;;;;25.49;39.42;100351.75;4474805;32;34507;-64
2023/09/29 08:43:46;;;;;;;7.93;5.95;;;;;;;25.48;39.34;100353.66;4469154;32;33412;-64
2023/09/29 08:46:34;;;;;;;9.55;5.72;;;;;;;25.49;39.26;100349.00;4455823;32;34816;-64
2023/09/29 08:49:03;;;;;;;10.52;5.95;;;;;;;25.49;39.34;100351.75;4475590;31;35018;-63
2023/09/29 08:51:33;;;;;;;12.05;6.53;;;;;;;25.49;39.36;100349.84;4480044;31;33399;-64
2023/09/29 08:54:02;;;;;;;10.23;6.10;;;;;;;25.48;39.23;100356.38;4464916;31;33736;-64
2023/09/29 08:56:30;;;;;;;12.75;6.10;;;;;;;25.48;39.28;100347.34;4466299;32;33984;-64
2023/09/29 08:58:59;;;;;;;8.77;5.95;;;;;;;25.48;39.36;100353.66;4473025;32;34790;-64
2023/09/29 09:01:27;;;;;;;10.45;5.72;;;;;;;25.48;39.32;100353.66;4465594;32;33580;-64
2023/09/29 09:03:55;;;;;;;9.85;6.18;;;;;;;25.50;39.39;100361.59;4467705;32;33939;-64
2023/09/29 09:06:24;;;;;;;10.15;6.70;;;;;;;25.49;39.31;100358.03;4467565;31;33677;-65
2023/09/29 09:08:53;;;;;;;11.05;6.50;;;;;;;25.49;39.30;100362.66;4477421;31;34059;-64
2023/09/29 09:11:21;;;;;;;10.33;6.30;;;;;;;25.50;39.27;100364.34;4472599;31;34415;-64
2023/09/29 09:13:59;;;;;;;9.70;6.45;;;;;;;25.52;39.26;100360.34;4470904;32;33770;-65
2023/09/29 09:16:27;;;;;;;9.63;6.05;;;;;;;25.51;39.16;100361.41;4471018;31;34319;-65
2023/09/29 09:18:55;;;;;;;11.68;6.87;;;;;;;25.51;39.28;100358.66;4461703;32;34031;-65
2023/09/29 09:21:32;;;;;;;11.73;6.60;;;;;;;25.51;39.17;100357.81;4455723;31;34060;-65
2023/09/29 09:24:00;;;;;;;11.43;6.68;;;;;;;25.52;39.09;100359.50;4468905;31;33645;-64
2023/09/29 09:26:28;;;;;;;10.82;6.28;;;;;;;25.52;39.16;100359.50;4467706;32;33473;-64
2023/09/29 09:29:07;;;;;;;13.38;7.20;;;;;;;25.51;38.95;100358.66;4458912;32;34799;-64
2023/09/29 09:31:51;;;;;;;13.70;7.50;;;;;;;25.53;38.93;100359.25;4474353;31;33227;-64
2023/09/29 09:34:18;;;;;;;10.95;7.35;;;;;;;25.54;38.74;100354.63;4467987;32;34682;-63
2023/09/29 09:36:52;;;;;;;14.68;6.62;;;;;;;25.53;38.83;100353.78;4475548;31;34925;-64
2023/09/29 09:39:22;;;;;;;12.07;7.07;;;;;;;25.53;38.86;100353.78;4470732;32;34816;-64
2023/09/29 09:41:55;;;;;;;10.75;7.10;;;;;;;25.55;38.90;100348.94;4468827;31;34518;-63
2023/09/29 09:44:23;;;;;;;13.70;7.40;;;;;;;25.55;38.71;100346.19;4467910;32;33943;-63
2023/09/29 09:47:00;;;;;;;13.32;6.30;;;;;;;25.57;38.26;100348.72;4467443;31;34323;-63
2023/09/29 09:49:44;;;;;;;10.32;6.75;;;;;;;25.57;37.97;100344.09;4468437;31;34065;-64
2023/09/29 09:52:15;;;;;;;10.82;7.20;;;;;;;25.59;37.72;100344.69;4470371;32;34490;-64
2023/09/29 09:54:48;;;;;;;11.45;6.85;;;;;;;25.58;37.48;100340.28;4467658;32;34569;-64
2023/09/29 09:57:23;;;;;;;9.32;6.65;;;;;;;25.58;37.65;100343.00;4476573;31;34683;-64
2023/09/29 09:59:51;;;;;;;11.88;6.43;;;;;;;25.59;37.71;100339.22;4483365;32;33781;-63
2023/09/29 10:02:20;;;;;;;12.35;6.62;;;;;;;25.59;37.86;100339.22;4470717;32;33230;-64
2023/09/29 10:04:48;;;;;;;9.02;6.28;;;;;;;25.62;37.59;100338.75;4467787;32;34595;-63
2023/09/29 10:07:15;;;;;;;12.73;6.68;;;;;;;25.62;37.73;100335.19;4467199;32;34798;-63
2023/09/29 10:09:44;;;;;;;13.88;7.00;;;;;;;25.60;38.00;100332.72;4467444;32;34889;-64
2023/09/29 10:12:28;;;;;;;11.45;6.28;;;;;;;25.63;38.01;100331.41;4472837;32;34293;-63
2023/09/29 10:14:56;;;;;;;11.25;6.62;;;;;;;25.64;37.99;100322.97;4467308;32;34936;-62
2023/09/29 10:17:24;;;;;;;11.88;7.32;;;;;;;25.64;37.91;100327.59;4468787;31;34709;-63
2023/09/29 10:19:54;;;;;;;12.45;6.93;;;;;;;25.64;38.01;100324.87;4468829;31;33740;-63
2023/09/29 10:22:25;;;;;;;11.90;6.50;;;;;;;25.65;38.07;100321.91;4473715;31;34410;-64
2023/09/29 10:24:56;;;;;;;10.48;7.35;;;;;;;25.65;38.10;100330.12;4467568;32;32998;-64
2023/09/29 10:27:34;;;;;;;16.17;6.40;;;;;;;25.65;38.05;100327.38;4467537;32;35020;-65
2023/09/29 10:30:16;;;;;;;10.27;6.35;;;;;;;25.67;38.05;100327.97;4454108;31;33122;-65
2023/09/29 10:32:45;;;;;;;8.85;6.47;;;;;;;25.69;37.98;100317.66;4468861;31;32541;-65
2023/09/29 10:35:20;;;;;;;11.75;6.53;;;;;;;25.68;38.01;100323.34;4481987;31;33873;-65
2023/09/29 10:37:54;;;;;;;11.45;6.85;;;;;;;25.77;38.02;100324.75;4466046;32;34837;-64
2023/09/29 10:40:31;;;;;;;12.95;6.80;;;;;;;25.78;38.02;100320.94;4473563;32;34158;-64
2023/09/29 10:43:02;;;;;;;10.60;6.62;;;;;;;25.77;38.09;100318.44;4460675;31;34323;-64
2023/09/29 10:45:36;;;;;;;11.27;6.57;;;;;;;25.79;38.03;100310.88;4498617;31;34721;-64
2023/09/29 10:48:06;;;;;;;11.02;6.68;;;;;;;25.77;37.98;100316.53;4481379;32;33916;-64
2023/09/29 10:50:44;;;;;;;10.80;6.50;;;;;;;25.78;37.92;100311.91;4466655;32;34012;-64
2023/09/29 10:53:12;;;;;;;11.98;7.22;;;;;;;25.83;37.95;100315.59;4445913;32;34009;-65
2023/09/29 10:55:44;;;;;;;11.48;7.47;;;;;;;25.80;37.80;100312.53;4454408;32;34721;-64
2023/09/29 10:58:12;;;;;;;10.02;6.47;;;;;;;25.88;37.65;100307.56;4463616;31;33482;-64
2023/09/29 11:00:46;;;;;;;9.60;6.10;;;;;;;25.93;37.36;100299.50;4449044;32;34082;-64
2023/09/29 11:03:26;;;;;;;14.43;7.25;;;;;;;25.97;37.03;100297.13;4470807;32;33331;-64
2023/09/29 11:05:55;;;;;;;12.98;6.30;;;;;;;26.03;36.99;100292.66;4482935;32;33898;-64
2023/09/29 11:08:33;;;;;;;11.27;6.72;;;;;;;26.03;36.94;100281.72;4457109;32;33888;-64
2023/09/29 11:11:02;;;;;;;11.12;6.43;;;;;;;26.01;37.06;100283.84;4470094;32;34239;-63
2023/09/29 11:13:31;;;;;;;10.15;6.20;;;;;;;25.94;37.21;100281.22;4469950;32;33384;-64
2023/09/29 11:15:59;;;;;;;11.05;5.70;;;;;;;25.91;37.33;100273.47;4469857;32;34638;-64
2023/09/29 11:18:31;;;;;;;11.68;6.35;;;;;;;25.90;37.22;100280.00;4469794;32;33267;-65
2023/09/29 11:21:00;;;;;;;10.75;6.53;;;;;;;25.88;37.17;100272.03;4464831;32;33899;-64
2023/09/29 11:23:47;;;;;;;13.13;6.03;;;;;;;25.90;36.81;100274.53;4457316;32;33270;-64
2023/09/29 11:26:15;;;;;;;11.75;6.12;;;;;;;25.95;36.68;100269.19;4471093;32;33913;-64
2023/09/29 11:28:44;;;;;;;12.57;6.53;;;;;;;25.93;36.84;100272.19;4457179;32;32927;-64
2023/09/29 11:31:12;;;;;;;10.07;5.57;;;;;;;25.89;36.96;100268.22;4469070;32;34835;-65
2023/09/29 11:33:40;;;;;;;9.27;5.90;;;;;;;25.91;36.84;100259.78;4441150;32;32495;-64
2023/09/29 11:36:18;;;;;;;10.93;6.37;;;;;;;25.89;37.06;100261.94;4454386;32;32734;-64